Guillaume Pons

Scout - Olympique de Marseille
3 Dec 2028
Sunday
Process

Personality

Adaptability (20) Ambition (14) Controversy (9) Loyalty (5) Pressure (3) Professionalism (8) Sportsmanship (8) Temperament (2)

Profile

Coaching Style Democratic
License Continental Pro
Determination 6
Man Management 9
Motivating 16
Discipline 10
Job Satisfaction
100%
Fatigue
0%
Role Scout
Wage 70.8K p/w
Contract 14.03.2029

Performance

Behaviour Good
Training Effectiveness
46%
Player Development
30%
Injury Prevention
70%
Tactical Implementation
55%

Recent Events

Recommended a transfer target now
Recommended a transfer target now
Recommended a transfer target now
Attended a recruitment meeting now
Attended a recruitment meeting now
Assessed a player now
Assessed a player now
Assessed a player now

Currently Monitoring

233
Player Club Status Ability Confidence Watched Last Observed Latest Vote
Juan Cruz de los Santos Nacional Active 127 / 137 40% 5 01.12.2028 -
Alejo Veliz Bahia Active 133 / 145 40% 3 01.12.2028 -
Celías Ingenthron Platense Active 117 / 131 40% 2 01.12.2028 -
Olivier Mambwa Young Boys Active 110 / 115 40% 2 01.12.2028 -
Kerem Aktürkoğlu Atlético Mineiro Active 155 / 145 40% 1 01.12.2028 -
Jofre Torrents Ajax Active 135 / 135 40% 1 01.12.2028 -
Bernardo Lima Porto Active 121 / 126 40% 3 30.11.2028 -
Marko Zebić Lucko Active 129 / 124 40% 2 30.11.2028 -
Lucas Jetten MC Alger Active 132 / 129 40% 1 30.11.2028 -
Talles Magno New York City Active 136 / 127 40% 4 29.11.2028 -
Endrick Boca Juniors Active 167 / 164 40% 3 29.11.2028 -
Luis Vázquez Mamelodi Sundowns Active 131 / 143 40% 3 29.11.2028 -
John Kennedy Corinthians Active 131 / 131 40% 4 28.11.2028 -
Souleymane Faye Sporting CP Active 138 / 139 40% 3 28.11.2028 -
Kévin Denkey FC Cincinnati Active 126 / 133 40% 2 28.11.2028 -
Gonzalo Plata Nacional Active 140 / 139 40% 3 27.11.2028 -
Bongokuhle Hlongwane LA Galaxy Active 138 / 131 40% 2 27.11.2028 -
Agustín Anello Philadelphia Union Active 137 / 126 40% 4 25.11.2028 -
Leonardo Campana New England Revolution Active 125 / 135 40% 3 25.11.2028 -
Louis Munteanu Charlotte Football Club Active 137 / 135 40% 3 24.11.2028 -
Narcis Ilaş Botosani Active 126 / 117 40% 2 24.11.2028 -
Salvador Blopá Wolverhampton Active 126 / 128 40% 1 24.11.2028 -
Germán Barbas Racing Santander Active 122 / 119 40% 1 24.11.2028 -
Brenner Vasco da Gama Active 127 / 137 40% 1 24.11.2028 -
Loïs Openda Juventus Active 164 / 154 40% 5 23.11.2028 -
Hamza Igamane LOSC Lille Rejected 159 / 147 40% 2 23.11.2028 Needs More Info
Nicolas Jackson Aston Villa Active 157 / 157 40% 4 23.11.2028 -
Liel Abada Inter Miami CF Active 147 / 138 40% 3 21.11.2028 -
Toni Fruk Talleres Active 140 / 142 40% 4 20.11.2028 -
Alexis Cuello San Lorenzo Active 123 / 126 40% 2 20.11.2028 -
Thulani Manyama Portland Timbers Active 112 / 112 40% 1 19.11.2028 -
Sebastian Rodriguez Houston Dynamo Active 126 / 130 40% 1 19.11.2028 -
Yousef Salech Cardiff City Active 134 / 140 40% 2 17.11.2028 -
Wessam Abou Ali Columbus Crew Active 128 / 126 40% 2 17.11.2028 -
Arthur Cabral Botafogo Active 132 / 134 40% 3 16.11.2028 -
Bénie Traoré New York City Active 125 / 130 40% 2 14.11.2028 -
Santiago Solari Racing Club Active 122 / 118 40% 5 14.11.2028 -
Martín Ojeda Orlando City Active 135 / 142 40% 5 14.11.2028 -
Matías Arezo Penarol Active 135 / 125 40% 4 13.11.2028 -
Morgan Guilavogui Real Salt Lake Active 136 / 126 40% 4 13.11.2028 -
Vitinho Internacional Active 135 / 126 40% 3 12.11.2028 -
Diego León Rotherham United Active 132 / 127 40% 3 12.11.2028 -
Felipe Pujol Vélez Active 105 / 121 40% 2 12.11.2028 -
Negueba Mirassol Active 130 / 132 40% 4 12.11.2028 -
Matías Satas Grimsby Town Active 101 / 111 40% 1 12.11.2028 -
Tomás Conechny Racing Club Active 127 / 122 40% 2 10.11.2028 -
Lyle Foster Rosenborg Active 136 / 127 40% 3 10.11.2028 -
Johannes Eggestein Orlando City Active 126 / 122 40% 2 09.11.2028 -
Cheikh Sabaly Vancouver Whitecaps Active 125 / 127 40% 2 09.11.2028 -
Riquelme Thompson-Jones Accrington Stanley Active 110 / 121 40% 4 08.11.2028 -
Petar Musa FC Dallas Active 149 / 143 40% 2 08.11.2028 -
Jesus Ferreira Seattle Sounders Active 139 / 141 40% 1 08.11.2028 -
Iliman N'Diaye Everton Active 158 / 169 40% 7 07.11.2028 -
Alan Velasco Fortaleza Active 133 / 136 40% 2 07.11.2028 -
Christian Kouamé Atlético Mineiro Active 139 / 131 40% 2 05.11.2028 -
Andrey Ivlev Nizhniy Novgorod Active 109 / 113 40% 6 04.11.2028 -
Erik Botheim Viking Active 121 / 116 40% 3 04.11.2028 -
Matys Donavin AC Ajaccio Active 114 / 117 40% 1 04.11.2028 -
Tobías Ramírez River Plate Active 124 / 128 40% 3 02.11.2028 -
Ayyoub Bouaddi Stoke City Active 149 / 166 40% 3 02.11.2028 -
Rhian Brewster LA Galaxy Active 137 / 120 40% 1 02.11.2028 -
Babis Kostoulas Oxford United Active 157 / 155 40% 1 29.10.2028 -
Noah Markmann Esbjerg Active 114 / 129 40% 2 28.10.2028 -
Tyler Fletcher Rotherham United Active 122 / 118 40% 2 27.10.2028 -
Andrija Bulatović Chamois Niortais Active 133 / 140 40% 7 26.10.2028 -
Mathys Angély VfL Wolfsburg Active 118 / 119 40% 1 26.10.2028 -
Daniel Banjaqui Benfica Active 125 / 140 40% 4 22.10.2028 -
Harrison Armstrong Ipswich Town Active 136 / 144 40% 2 22.10.2028 -
Facundo Farías Estudiantes Active 122 / 136 40% 4 22.10.2028 -
Emmanuel Latte Lath Atlanta United FC Active 141 / 135 40% 3 21.10.2028 -
Josh Sargent Toronto FC Active 140 / 131 40% 3 21.10.2028 -
Mateusz Bogusz DC United Active 128 / 127 40% 1 18.10.2028 -
Marius Courcoul Angers SCO Active 124 / 130 40% 1 13.10.2028 -
Luca Langoni Columbus Crew Active 142 / 138 40% 1 10.10.2028 -
Konstantin Tyukavin New York City Active 136 / 137 40% 2 09.10.2028 -
Davinchi Getafe Active 122 / 128 40% 1 09.10.2028 -
Cheveyo Tsawa Club Brugge Active 134 / 139 40% 1 09.10.2028 -
Nəriman Axundzadə Columbus Crew Active 132 / 132 40% 1 09.10.2028 -
Alexander Aravena Portland Timbers Active 133 / 138 40% 3 08.10.2028 -
Seny Koumbassa Toulouse FC Active 114 / 120 40% 1 04.10.2028 -
Trey Nyoni Rotherham United Active 152 / 154 40% 6 02.10.2028 -
Noa Mikić Imotski Active 126 / 125 40% 1 02.10.2028 -
Dejan Joveljić Seattle Sounders Active 129 / 129 40% 1 02.10.2028 -
Honest Ahanor Atalanta Active 139 / 149 40% 4 29.09.2028 -
Luka Vušković Tottenham Active 157 / 153 40% 3 29.09.2028 -
Barış Alper Yılmaz Cruzeiro Active 156 / 149 40% 2 26.09.2028 -
Giovanni Leoni Lincoln City Active 140 / 153 40% 2 25.09.2028 -
Germán Berterame Inter Miami CF Active 136 / 132 40% 2 25.09.2028 -
Daniel Karlsbakk Sarpsborg 08 Active 120 / 139 40% 1 25.09.2028 -
Luis Otávio Orlando City Active 114 / 114 40% 1 23.09.2028 -
Myles Lewis-Skelly Arsenal Active 155 / 168 40% 2 14.09.2028 -
Mirza Ćatović VfB Stuttgart Active 121 / 133 40% 1 14.09.2028 -
Bruno Barticciotto Talleres Active 128 / 129 40% 1 09.09.2028 -
Lucas Villalba Botafogo Active 128 / 124 40% 1 06.09.2028 -
Dro Monaco Active 139 / 150 40% 1 29.08.2028 -
Tahiel Peralta Racing Club Active 113 / 129 40% 1 29.08.2028 -
Bendito Mantato Manchester United Active 117 / 122 40% 1 14.08.2028 -
Richard Koné Queens Park Rangers Lost 134 / 131 40% 1 07.08.2028 -
Ilyas Ansah Hull City Active 146 / 140 40% 1 02.08.2028 -
Brian Brobbey Sunderland Active 156 / 147 40% 2 24.07.2028 -
Adam Idah Swansea City Lost 125 / 131 40% 1 24.07.2028 -
Marezi Portsmouth Active 130 / 126 40% 1 18.07.2028 -
Mohamed-Ali Cho Hull City Active 141 / 147 40% 1 28.06.2028 -
Arnaud Kalimuendo Nottingham Forest Active 152 / 146 40% 1 28.06.2028 -
Sebastiano Esposito Cagliari Active 143 / 143 40% 3 26.06.2028 -
Luca Koleosho Paris FC Active 152 / 130 40% 1 26.06.2028 Needs More Info
Lucas Høgsberg RC Strasbourg Active 149 / 155 40% 10 12.06.2028 -
Yann Gboho Toulouse FC Active 145 / 132 62% 1 12.06.2028 Approve
Charles De Ketelaere Tottenham Active 166 / 163 40% 2 08.06.2028 -
João Pedro Chelsea Active 157 / 156 40% 5 08.06.2028 -
Martim Cunha Porto Active 101 / 111 40% 3 07.06.2028 -
Ezra Mayers West Ham United Lost 134 / 137 40% 2 07.06.2028 -
Axel Tuanzebe AJ Auxerre Lost 144 / 143 62% 1 06.06.2028 -
Moses Simon Paris FC Lost 132 / 143 62% 1 04.06.2028 -
Shea Lacey Crystal Palace Active 137 / 141 40% 1 02.06.2028 -
Ayden Heaven Portsmouth Active 150 / 152 40% 4 26.05.2028 -
Kiani Inge Groningen Active 110 / 124 40% 3 26.05.2028 -
Ronan Kpakio AC Milan Active 129 / 130 40% 1 24.05.2028 -
Hervin Goyes Deportivo Pasto Active 106 / 118 40% 1 22.05.2028 -
Jorthy Mokio ADO Den Haag Active 126 / 138 40% 2 15.05.2028 -
Josh Nichols Oldham Athletic Active 128 / 132 40% 4 14.05.2028 -
Bade Aluko Leicester City Active 123 / 131 40% 1 05.05.2028 -
Marius Louër Angers SCO Active 113 / 113 40% 1 04.05.2028 -
Josh Acheampong Everton Active 141 / 147 40% 3 25.04.2028 -
Thato Sibiya Orlando Pirates Active 110 / 116 40% 4 24.04.2028 -
Thijs Kraaijeveld USM Alger Active 128 / 132 40% 2 21.04.2028 -
Jason Witsel PSV Active 121 / 129 40% 2 10.04.2028 -
Noahkai Banks FC Augsburg Active 137 / 144 40% 1 05.04.2028 -
Archie Gray Southampton Active 150 / 156 40% 1 05.03.2028 -
Nicolas Sport Recife Active 113 / 106 40% 4 27.02.2028 -
Jan Bürger Northampton Town Active 114 / 120 40% 1 27.02.2028 -
Matvey Bardachev Zenit Active 121 / 106 40% 1 23.02.2028 -
Nhoa Sangui AS Nancy Active 122 / 121 40% 1 19.02.2028 -
Esquerdinha Notts County Active 116 / 129 40% 4 16.02.2028 -
Kauã Moraes Flamengo Active 124 / 129 40% 1 10.02.2028 -
Mao Hosoya Santos Active 134 / 135 90% 1 01.01.2028 Approve
Mama Baldé Stade Brestois Active 144 / 142 62% 1 01.01.2028 Approve
Morgan Rogers Chelsea Active 158 / 165 40% 3 28.12.2027 -
Ansu Fati Monaco Active 136 / 141 40% 2 28.12.2027 -
Lois Vanaken Monaco Active 147 / 147 40% 1 24.12.2027 -
Musa Barrow ES Setif Active 132 / 156 40% 2 23.12.2027 -
Evann Guessand Aston Villa Active 145 / 141 40% 6 22.12.2027 -
Darwin Núñez Al-Hilal Active 145 / 145 40% 2 22.12.2027 -
Eddie Nketiah Crystal Palace Active 141 / 150 40% 2 17.12.2027 -
Gianluca Scamacca Atalanta Active 160 / 161 40% 5 17.12.2027 -
Ismaïla Sarr Crystal Palace Active 149 / 158 40% 4 13.12.2027 -
Joshua Zirkzee Manchester United Active 143 / 158 40% 3 13.12.2027 -
Cody Gakpo Liverpool Active 170 / 159 40% 3 12.12.2027 -
Eduardo Lozano Botafogo Active 146 / 151 40% 5 05.12.2027 -
Christian Pulisic AC Milan Active 168 / 168 40% 3 01.12.2027 -
Nicolás González Juventus Active 160 / 150 40% 4 28.11.2027 -
Thiago Brentford Active 143 / 147 40% 2 27.11.2027 -
Kevin Schade Chelsea Active 152 / 157 40% 2 24.11.2027 -
Nicolò Zaniolo Udinese Active 150 / 144 40% 1 22.11.2027 -
Tommaso Baldanzi AS Roma Active 152 / 155 40% 1 18.11.2027 -
Jørgen Strand Larsen Brighton Active 153 / 152 40% 1 15.11.2027 -
Luis Suárez Sporting CP Active 166 / 160 40% 4 02.11.2027 -
Noah Okafor Leeds United Active 143 / 153 40% 1 31.10.2027 -
Georginio Rutter Brighton Active 161 / 149 40% 5 28.10.2027 -
Mathys Tel Tottenham Active 154 / 152 40% 3 18.10.2027 -
Roberto Fernández Braga Active 145 / 147 40% 6 17.10.2027 -
Christopher Nkunku AC Milan Active 163 / 159 40% 3 15.10.2027 -
Emanuel Emegha Chelsea Active 154 / 154 40% 1 22.09.2027 -
Steven Bergwijn Al-Ittihad Active 141 / 158 40% 1 17.09.2027 -
Lorenzo Lucca Napoli Active 139 / 155 40% 1 10.09.2027 -
Taty Castellanos West Ham United Active 141 / 145 40% 1 06.09.2027 -
Alphadjo Cissé Lecce Active 131 / 135 40% 1 10.08.2027 -
Luís Guilherme Sporting CP Active 140 / 138 40% 1 26.07.2027 -
Romelle Donovan Brentford Active 128 / 136 40% 1 13.07.2027 -
Yehor Yarmoliuk Brentford Active 147 / 151 40% 2 28.06.2027 -
Kobbie Mainoo Manchester United Active 152 / 151 40% 1 28.06.2027 -
Loïc Badiashile US Creteil Active 99 / 102 62% 1 14.06.2027 Approve
James Trafford Leeds United Active 153 / 144 40% 1 06.06.2027 -
Balázs Tóth Blackburn Rovers Active 127 / 123 40% 1 02.06.2027 -
Radek Vítek Middlesbrough Active 140 / 145 40% 1 02.06.2027 -
Ricardo Pepi Mallorca Active 142 / 145 69% 1 01.06.2027 Approve
Kevin Amaro Racing Genk Active 129 / 129 40% 3 26.05.2027 -
Diego Coppola Paris FC Active 146 / 148 40% 2 26.05.2027 -
Sidny Lopes Cabral Trabzonspor Active 125 / 122 40% 1 25.05.2027 -
Ousmane Diomande Nottingham Forest Active 150 / 147 40% 5 24.05.2027 -
Festy Ebosele Basaksehir Active 119 / 130 40% 1 24.05.2027 -
Brooke Norton-Cuffy Hull City Active 132 / 143 40% 4 19.05.2027 -
Michael Kayode Brentford Active 157 / 154 40% 4 19.05.2027 -
Alex Scott Bournemouth Active 144 / 145 40% 4 13.05.2027 -
Ben Nelson Leicester City Active 139 / 127 40% 1 13.05.2027 -
Tiago Santos LOSC Lille Active 137 / 143 40% 2 12.05.2027 -
Habib Diarra Sunderland Active 134 / 147 40% 1 10.05.2027 -
Aaron Hickey Brentford Active 150 / 148 40% 2 08.05.2027 -
Juanlu Bournemouth Active 155 / 147 40% 4 07.05.2027 -
Tino Livramento Newcastle United Active 159 / 152 40% 6 07.05.2027 -
Lamine Camara Monaco Active 144 / 144 40% 1 03.05.2027 -
Joel Ordóñez Club Brugge Active 126 / 138 40% 2 02.05.2027 -
Quentin Merlin Stade Rennais Active 129 / 126 40% 4 26.04.2027 -
Adam Wharton Crystal Palace Active 152 / 150 40% 3 25.04.2027 -
Ilay Camara Anderlecht Active 138 / 122 40% 3 24.04.2027 -
Arthur Avom Ebong FC Lorient Active 137 / 127 40% 1 24.04.2027 -
Max Johnston Derby County Active 127 / 121 40% 2 23.04.2027 -
Alfie Gilchrist West Bromwich Albion Active 131 / 122 40% 1 22.04.2027 -
Romano Floriani Mussolini Blackpool Active 123 / 126 40% 1 22.04.2027 -
Jarrad Branthwaite Everton Active 147 / 152 40% 5 21.04.2027 -
Louis Mouton Angers SCO Active 133 / 124 40% 1 16.04.2027 -
Diego Gómez Brighton Active 140 / 137 40% 1 15.04.2027 -
Marco Kana Anderlecht Active 122 / 136 40% 1 08.04.2027 -
Joaquin Seys Club Brugge Active 132 / 132 40% 1 07.04.2027 -
Matteo Dams Club Brugge Active 138 / 126 40% 2 06.04.2027 -
Ismaël Doukouré RC Strasbourg Active 140 / 137 40% 1 06.04.2027 -
Levi Colwill Chelsea Active 151 / 163 40% 1 05.04.2027 -
Jacques Ekomié Wrexham Active 138 / 135 40% 1 05.04.2027 -
Matte Smets Racing Genk Active 123 / 127 40% 1 03.04.2027 -
Bradley Locko Stade Brestois Active 139 / 137 40% 3 31.03.2027 -
Ngal'Ayel Mukau LOSC Lille Active 138 / 145 40% 2 28.03.2027 -
Dennis Cirkin Queens Park Rangers Active 124 / 119 40% 1 16.03.2027 -
Youssouf Ndayishimiye OGC Nice Active 148 / 139 40% 1 02.01.2027 -
Fabián Manchester United Active 167 / 154 40% 3 29.12.2026 -
Sofiane Diop OGC Nice Active 142 / 135 40% 3 20.12.2026 -
Osame Sahraoui LOSC Lille Active 136 / 145 40% 2 20.12.2026 Needs More Info
Matheus Cunha Manchester United Active 153 / 160 40% 5 17.12.2026 -
Manu Koné AS Roma Active 162 / 162 40% 2 14.12.2026 -
Carlos Álvarez Club America Active 134 / 146 40% 1 13.12.2026 -
Moisés Caicedo Chelsea Active 162 / 161 40% 5 26.11.2026 -
Mason Mount Manchester United Active 149 / 161 40% 3 24.11.2026 -
Ludovic Blas Stade Rennais Active 133 / 146 40% 2 23.11.2026 -
Takumi Minamino Monaco Active 139 / 148 40% 1 02.11.2026 -
Brais Méndez RC Lens Active 145 / 147 40% 1 01.11.2026 -
John McGinn Aston Villa Active 140 / 153 40% 1 23.10.2026 -
Cristian Uribe Monaco Active 159 / 149 40% 1 12.10.2026 -
Xavi Simons Tottenham Active 156 / 153 40% 1 12.10.2026 -
Noussair Mazraoui Manchester United Active 144 / 144 40% 1 10.10.2026 -
Leandro Paredes Boca Juniors Active 147 / 138 40% 1 28.09.2026 -
Amadou Onana Aston Villa Active 145 / 153 40% 1 21.09.2026 -
James Maddison Tottenham Active 159 / 151 40% 1 20.09.2026 -
Savinho Tottenham Active 144 / 163 40% 1 17.09.2026 -
Sandro Tonali Tottenham Active 172 / 160 40% 1 07.09.2026 -